sensor_id;sensor_type;location;lat;lon;timestamp;P1;durP1;ratioP1;P2;durP2;ratioP2
37609;SDS011;23457;51.966;8.230;2022-12-07T00:01:31;81.07;;;43.45;;
37609;SDS011;23457;51.966;8.230;2022-12-07T00:06:35;72.53;;;41.75;;
37609;SDS011;23457;51.966;8.230;2022-12-07T00:09:05;76.82;;;41.10;;
37609;SDS011;23457;51.966;8.230;2022-12-07T00:11:33;75.90;;;40.25;;
37609;SDS011;23457;51.966;8.230;2022-12-07T00:14:01;73.15;;;42.42;;
37609;SDS011;23457;51.966;8.230;2022-12-07T00:16:32;71.25;;;39.60;;
37609;SDS011;23457;51.966;8.230;2022-12-07T00:19:00;73.43;;;39.70;;
37609;SDS011;23457;51.966;8.230;2022-12-07T00:21:30;70.25;;;39.25;;
37609;SDS011;23457;51.966;8.230;2022-12-07T00:26:30;63.70;;;35.15;;
37609;SDS011;23457;51.966;8.230;2022-12-07T00:29:04;65.68;;;35.83;;
37609;SDS011;23457;51.966;8.230;2022-12-07T00:31:33;64.53;;;35.55;;
37609;SDS011;23457;51.966;8.230;2022-12-07T00:34:13;62.00;;;34.40;;
37609;SDS011;23457;51.966;8.230;2022-12-07T00:36:45;61.50;;;34.05;;
37609;SDS011;23457;51.966;8.230;2022-12-07T00:39:12;59.03;;;32.95;;
37609;SDS011;23457;51.966;8.230;2022-12-07T00:41:39;62.08;;;35.58;;
37609;SDS011;23457;51.966;8.230;2022-12-07T00:44:05;58.33;;;32.63;;
37609;SDS011;23457;51.966;8.230;2022-12-07T00:46:36;59.03;;;34.65;;
37609;SDS011;23457;51.966;8.230;2022-12-07T00:49:03;54.92;;;33.75;;
37609;SDS011;23457;51.966;8.230;2022-12-07T00:51:30;57.53;;;33.60;;
37609;SDS011;23457;51.966;8.230;2022-12-07T00:53:56;52.75;;;32.00;;
37609;SDS011;23457;51.966;8.230;2022-12-07T00:56:26;51.25;;;31.15;;
37609;SDS011;23457;51.966;8.230;2022-12-07T00:58:55;49.28;;;29.92;;
37609;SDS011;23457;51.966;8.230;2022-12-07T01:01:27;49.78;;;29.15;;
37609;SDS011;23457;51.966;8.230;2022-12-07T01:03:56;50.05;;;29.67;;
37609;SDS011;23457;51.966;8.230;2022-12-07T01:06:23;50.72;;;31.13;;
37609;SDS011;23457;51.966;8.230;2022-12-07T01:08:50;52.25;;;30.52;;
37609;SDS011;23457;51.966;8.230;2022-12-07T01:11:18;51.58;;;30.70;;
37609;SDS011;23457;51.966;8.230;2022-12-07T01:16:16;49.05;;;28.85;;
37609;SDS011;23457;51.966;8.230;2022-12-07T01:18:45;49.38;;;29.25;;
37609;SDS011;23457;51.966;8.230;2022-12-07T01:21:15;48.28;;;29.15;;
37609;SDS011;23457;51.966;8.230;2022-12-07T01:23:44;49.08;;;30.15;;
37609;SDS011;23457;51.966;8.230;2022-12-07T01:26:11;47.25;;;28.38;;
37609;SDS011;23457;51.966;8.230;2022-12-07T01:28:40;47.78;;;28.33;;
37609;SDS011;23457;51.966;8.230;2022-12-07T01:31:08;44.40;;;26.75;;
37609;SDS011;23457;51.966;8.230;2022-12-07T01:33:41;41.72;;;25.17;;
37609;SDS011;23457;51.966;8.230;2022-12-07T01:38:57;39.35;;;23.90;;
37609;SDS011;23457;51.966;8.230;2022-12-07T01:41:26;36.40;;;23.10;;
37609;SDS011;23457;51.966;8.230;2022-12-07T01:52:00;36.88;;;22.08;;
37609;SDS011;23457;51.966;8.230;2022-12-07T01:54:34;36.35;;;23.85;;
37609;SDS011;23457;51.966;8.230;2022-12-07T01:57:01;39.33;;;24.65;;
37609;SDS011;23457;51.966;8.230;2022-12-07T01:59:32;42.65;;;24.73;;
37609;SDS011;23457;51.966;8.230;2022-12-07T02:01:59;36.67;;;23.92;;
37609;SDS011;23457;51.966;8.230;2022-12-07T02:04:30;36.35;;;22.80;;
37609;SDS011;23457;51.966;8.230;2022-12-07T02:06:57;35.53;;;22.73;;
37609;SDS011;23457;51.966;8.230;2022-12-07T02:09:27;32.58;;;21.80;;
37609;SDS011;23457;51.966;8.230;2022-12-07T02:11:53;34.75;;;21.77;;
37609;SDS011;23457;51.966;8.230;2022-12-07T02:14:21;34.80;;;21.33;;
37609;SDS011;23457;51.966;8.230;2022-12-07T02:30:26;25.00;;;16.55;;
37609;SDS011;23457;51.966;8.230;2022-12-07T02:33:02;26.05;;;16.45;;
37609;SDS011;23457;51.966;8.230;2022-12-07T02:35:35;25.00;;;16.33;;
37609;SDS011;23457;51.966;8.230;2022-12-07T02:38:10;25.08;;;15.40;;
37609;SDS011;23457;51.966;8.230;2022-12-07T02:40:53;27.17;;;15.63;;
37609;SDS011;23457;51.966;8.230;2022-12-07T02:43:25;26.17;;;14.88;;
37609;SDS011;23457;51.966;8.230;2022-12-07T02:45:56;22.88;;;13.50;;
37609;SDS011;23457;51.966;8.230;2022-12-07T02:48:28;24.00;;;15.23;;
37609;SDS011;23457;51.966;8.230;2022-12-07T02:50:55;24.20;;;15.57;;
37609;SDS011;23457;51.966;8.230;2022-12-07T03:07:00;27.25;;;14.32;;
37609;SDS011;23457;51.966;8.230;2022-12-07T03:09:37;22.38;;;13.90;;
37609;SDS011;23457;51.966;8.230;2022-12-07T03:12:16;26.33;;;14.55;;
37609;SDS011;23457;51.966;8.230;2022-12-07T03:14:49;29.95;;;14.18;;
37609;SDS011;23457;51.966;8.230;2022-12-07T03:17:30;23.73;;;15.25;;
37609;SDS011;23457;51.966;8.230;2022-12-07T03:20:02;25.08;;;14.23;;
37609;SDS011;23457;51.966;8.230;2022-12-07T03:22:39;28.63;;;14.82;;
37609;SDS011;23457;51.966;8.230;2022-12-07T03:25:11;25.15;;;14.18;;
37609;SDS011;23457;51.966;8.230;2022-12-07T03:27:54;23.10;;;14.15;;
37609;SDS011;23457;51.966;8.230;2022-12-07T03:30:29;25.23;;;13.68;;
37609;SDS011;23457;51.966;8.230;2022-12-07T03:33:34;25.42;;;15.02;;
37609;SDS011;23457;51.966;8.230;2022-12-07T03:36:07;25.55;;;15.02;;
37609;SDS011;23457;51.966;8.230;2022-12-07T03:41:18;29.30;;;15.88;;
37609;SDS011;23457;51.966;8.230;2022-12-07T03:43:51;21.42;;;14.93;;
37609;SDS011;23457;51.966;8.230;2022-12-07T03:49:27;26.88;;;15.20;;
37609;SDS011;23457;51.966;8.230;2022-12-07T03:54:36;27.80;;;13.93;;
37609;SDS011;23457;51.966;8.230;2022-12-07T03:57:13;20.80;;;13.52;;
37609;SDS011;23457;51.966;8.230;2022-12-07T03:59:41;21.90;;;13.65;;
37609;SDS011;23457;51.966;8.230;2022-12-07T04:02:10;30.95;;;15.23;;
37609;SDS011;23457;51.966;8.230;2022-12-07T04:04:39;27.05;;;14.85;;
37609;SDS011;23457;51.966;8.230;2022-12-07T04:07:06;27.83;;;15.00;;
37609;SDS011;23457;51.966;8.230;2022-12-07T04:09:32;31.90;;;15.23;;
37609;SDS011;23457;51.966;8.230;2022-12-07T04:11:59;27.33;;;14.45;;
37609;SDS011;23457;51.966;8.230;2022-12-07T04:14:26;26.50;;;15.95;;
37609;SDS011;23457;51.966;8.230;2022-12-07T04:16:56;26.90;;;14.38;;
37609;SDS011;23457;51.966;8.230;2022-12-07T04:19:25;23.83;;;14.63;;
37609;SDS011;23457;51.966;8.230;2022-12-07T04:21:53;23.30;;;14.95;;
37609;SDS011;23457;51.966;8.230;2022-12-07T04:24:21;29.23;;;15.70;;
37609;SDS011;23457;51.966;8.230;2022-12-07T04:26:48;31.17;;;16.27;;
37609;SDS011;23457;51.966;8.230;2022-12-07T04:29:19;24.35;;;15.13;;
37609;SDS011;23457;51.966;8.230;2022-12-07T04:31:46;24.60;;;14.43;;
37609;SDS011;23457;51.966;8.230;2022-12-07T04:34:13;25.55;;;15.15;;
37609;SDS011;23457;51.966;8.230;2022-12-07T04:36:40;23.80;;;15.05;;
37609;SDS011;23457;51.966;8.230;2022-12-07T04:39:14;24.80;;;14.55;;
37609;SDS011;23457;51.966;8.230;2022-12-07T04:41:45;25.98;;;15.10;;
37609;SDS011;23457;51.966;8.230;2022-12-07T04:44:11;25.63;;;14.60;;
37609;SDS011;23457;51.966;8.230;2022-12-07T04:46:41;28.77;;;14.93;;
37609;SDS011;23457;51.966;8.230;2022-12-07T04:49:10;28.58;;;13.75;;
37609;SDS011;23457;51.966;8.230;2022-12-07T04:51:38;28.48;;;14.43;;
37609;SDS011;23457;51.966;8.230;2022-12-07T04:54:05;32.28;;;15.23;;
37609;SDS011;23457;51.966;8.230;2022-12-07T04:56:31;23.95;;;14.00;;
37609;SDS011;23457;51.966;8.230;2022-12-07T04:58:58;23.40;;;14.82;;
37609;SDS011;23457;51.966;8.230;2022-12-07T05:01:25;27.80;;;14.55;;
37609;SDS011;23457;51.966;8.230;2022-12-07T05:03:51;31.35;;;15.15;;
37609;SDS011;23457;51.966;8.230;2022-12-07T05:06:21;24.88;;;13.45;;
37609;SDS011;23457;51.966;8.230;2022-12-07T05:08:47;29.20;;;14.75;;
37609;SDS011;23457;51.966;8.230;2022-12-07T05:11:14;24.40;;;13.88;;
37609;SDS011;23457;51.966;8.230;2022-12-07T05:14:02;27.85;;;13.30;;
37609;SDS011;23457;51.966;8.230;2022-12-07T05:16:30;23.05;;;12.85;;
37609;SDS011;23457;51.966;8.230;2022-12-07T05:18:57;21.65;;;12.75;;
37609;SDS011;23457;51.966;8.230;2022-12-07T05:21:30;31.58;;;14.00;;
37609;SDS011;23457;51.966;8.230;2022-12-07T05:23:57;23.13;;;12.95;;
37609;SDS011;23457;51.966;8.230;2022-12-07T05:26:23;24.02;;;12.32;;
37609;SDS011;23457;51.966;8.230;2022-12-07T05:29:12;26.55;;;13.57;;
37609;SDS011;23457;51.966;8.230;2022-12-07T05:31:40;32.42;;;12.82;;
37609;SDS011;23457;51.966;8.230;2022-12-07T05:34:07;21.48;;;12.63;;
37609;SDS011;23457;51.966;8.230;2022-12-07T05:36:33;23.38;;;12.25;;
37609;SDS011;23457;51.966;8.230;2022-12-07T05:39:00;27.70;;;13.32;;
37609;SDS011;23457;51.966;8.230;2022-12-07T05:41:27;21.83;;;11.93;;
37609;SDS011;23457;51.966;8.230;2022-12-07T05:44:12;24.98;;;13.10;;
37609;SDS011;23457;51.966;8.230;2022-12-07T05:46:40;27.83;;;12.25;;
37609;SDS011;23457;51.966;8.230;2022-12-07T05:49:06;23.00;;;12.00;;
37609;SDS011;23457;51.966;8.230;2022-12-07T05:51:50;21.77;;;11.77;;
37609;SDS011;23457;51.966;8.230;2022-12-07T05:54:17;23.95;;;11.60;;
37609;SDS011;23457;51.966;8.230;2022-12-07T05:56:45;26.75;;;11.52;;
37609;SDS011;23457;51.966;8.230;2022-12-07T05:59:12;23.23;;;11.48;;
37609;SDS011;23457;51.966;8.230;2022-12-07T06:01:54;22.75;;;11.00;;
37609;SDS011;23457;51.966;8.230;2022-12-07T06:04:27;25.17;;;12.90;;
37609;SDS011;23457;51.966;8.230;2022-12-07T06:06:56;27.33;;;12.07;;
37609;SDS011;23457;51.966;8.230;2022-12-07T06:09:23;29.35;;;12.20;;
37609;SDS011;23457;51.966;8.230;2022-12-07T06:11:51;22.88;;;11.85;;
37609;SDS011;23457;51.966;8.230;2022-12-07T06:14:39;28.38;;;12.63;;
37609;SDS011;23457;51.966;8.230;2022-12-07T06:17:06;23.13;;;11.35;;
37609;SDS011;23457;51.966;8.230;2022-12-07T06:19:33;21.10;;;11.57;;
37609;SDS011;23457;51.966;8.230;2022-12-07T06:22:01;26.58;;;13.13;;
37609;SDS011;23457;51.966;8.230;2022-12-07T06:24:31;31.33;;;14.95;;
37609;SDS011;23457;51.966;8.230;2022-12-07T06:26:58;26.95;;;12.43;;
37609;SDS011;23457;51.966;8.230;2022-12-07T06:29:27;28.25;;;14.25;;
37609;SDS011;23457;51.966;8.230;2022-12-07T06:31:56;24.33;;;12.23;;
37609;SDS011;23457;51.966;8.230;2022-12-07T06:34:24;25.23;;;11.90;;
37609;SDS011;23457;51.966;8.230;2022-12-07T06:36:52;24.17;;;11.27;;
37609;SDS011;23457;51.966;8.230;2022-12-07T06:39:25;26.55;;;12.38;;
37609;SDS011;23457;51.966;8.230;2022-12-07T06:41:53;20.88;;;11.32;;
37609;SDS011;23457;51.966;8.230;2022-12-07T06:44:26;19.92;;;11.70;;
37609;SDS011;23457;51.966;8.230;2022-12-07T06:46:54;26.63;;;12.48;;
37609;SDS011;23457;51.966;8.230;2022-12-07T06:49:46;18.95;;;10.57;;
37609;SDS011;23457;51.966;8.230;2022-12-07T06:52:12;29.92;;;11.63;;
37609;SDS011;23457;51.966;8.230;2022-12-07T06:54:42;20.00;;;10.80;;
37609;SDS011;23457;51.966;8.230;2022-12-07T06:57:09;26.98;;;10.55;;
37609;SDS011;23457;51.966;8.230;2022-12-07T06:59:36;25.27;;;11.27;;
37609;SDS011;23457;51.966;8.230;2022-12-07T07:02:02;32.28;;;11.55;;
37609;SDS011;23457;51.966;8.230;2022-12-07T07:04:35;23.60;;;11.00;;
37609;SDS011;23457;51.966;8.230;2022-12-07T07:07:02;21.63;;;10.05;;
37609;SDS011;23457;51.966;8.230;2022-12-07T07:09:28;23.15;;;10.07;;
37609;SDS011;23457;51.966;8.230;2022-12-07T07:11:55;19.08;;;9.48;;
37609;SDS011;23457;51.966;8.230;2022-12-07T07:14:22;30.80;;;10.98;;
37609;SDS011;23457;51.966;8.230;2022-12-07T07:16:48;27.17;;;9.27;;
37609;SDS011;23457;51.966;8.230;2022-12-07T07:19:19;19.70;;;9.77;;
37609;SDS011;23457;51.966;8.230;2022-12-07T07:21:52;23.02;;;9.65;;
37609;SDS011;23457;51.966;8.230;2022-12-07T07:24:19;24.63;;;9.20;;
37609;SDS011;23457;51.966;8.230;2022-12-07T07:26:46;24.92;;;9.88;;
37609;SDS011;23457;51.966;8.230;2022-12-07T07:29:15;18.48;;;8.90;;
37609;SDS011;23457;51.966;8.230;2022-12-07T07:31:42;23.95;;;8.75;;
37609;SDS011;23457;51.966;8.230;2022-12-07T07:34:12;25.10;;;9.07;;
37609;SDS011;23457;51.966;8.230;2022-12-07T07:36:38;27.20;;;9.50;;
37609;SDS011;23457;51.966;8.230;2022-12-07T07:39:05;16.75;;;8.30;;
37609;SDS011;23457;51.966;8.230;2022-12-07T07:41:38;23.38;;;8.70;;
37609;SDS011;23457;51.966;8.230;2022-12-07T07:44:11;18.33;;;7.90;;
37609;SDS011;23457;51.966;8.230;2022-12-07T07:46:38;19.75;;;8.27;;
37609;SDS011;23457;51.966;8.230;2022-12-07T07:49:05;21.55;;;8.75;;
37609;SDS011;23457;51.966;8.230;2022-12-07T07:51:32;17.38;;;8.05;;
37609;SDS011;23457;51.966;8.230;2022-12-07T07:54:01;17.75;;;7.60;;
37609;SDS011;23457;51.966;8.230;2022-12-07T07:56:32;17.63;;;8.05;;
37609;SDS011;23457;51.966;8.230;2022-12-07T07:58:59;19.05;;;7.57;;
37609;SDS011;23457;51.966;8.230;2022-12-07T08:01:32;18.73;;;7.93;;
37609;SDS011;23457;51.966;8.230;2022-12-07T08:03:59;16.17;;;8.07;;
37609;SDS011;23457;51.966;8.230;2022-12-07T08:06:26;25.08;;;7.35;;
37609;SDS011;23457;51.966;8.230;2022-12-07T08:08:57;20.60;;;7.93;;
37609;SDS011;23457;51.966;8.230;2022-12-07T08:11:26;20.92;;;7.93;;
37609;SDS011;23457;51.966;8.230;2022-12-07T08:13:56;23.67;;;8.77;;
37609;SDS011;23457;51.966;8.230;2022-12-07T08:16:22;18.90;;;8.55;;
37609;SDS011;23457;51.966;8.230;2022-12-07T08:18:49;22.45;;;8.48;;
37609;SDS011;23457;51.966;8.230;2022-12-07T08:21:15;19.90;;;9.80;;
37609;SDS011;23457;51.966;8.230;2022-12-07T08:23:42;25.38;;;9.18;;
37609;SDS011;23457;51.966;8.230;2022-12-07T08:26:10;20.75;;;8.38;;
37609;SDS011;23457;51.966;8.230;2022-12-07T08:28:39;19.48;;;7.95;;
37609;SDS011;23457;51.966;8.230;2022-12-07T08:31:07;20.80;;;8.65;;
37609;SDS011;23457;51.966;8.230;2022-12-07T08:33:37;20.42;;;8.75;;
37609;SDS011;23457;51.966;8.230;2022-12-07T08:36:05;20.58;;;8.82;;
37609;SDS011;23457;51.966;8.230;2022-12-07T08:38:34;21.58;;;9.40;;
37609;SDS011;23457;51.966;8.230;2022-12-07T08:41:02;21.73;;;8.32;;
37609;SDS011;23457;51.966;8.230;2022-12-07T08:43:29;25.13;;;8.80;;
37609;SDS011;23457;51.966;8.230;2022-12-07T08:46:02;17.00;;;8.35;;
37609;SDS011;23457;51.966;8.230;2022-12-07T08:49:08;30.92;;;9.50;;
37609;SDS011;23457;51.966;8.230;2022-12-07T08:51:32;15.90;;;6.68;;
37609;SDS011;23457;51.966;8.230;2022-12-07T08:54:00;19.92;;;6.75;;
37609;SDS011;23457;51.966;8.230;2022-12-07T08:59:25;17.08;;;6.95;;
37609;SDS011;23457;51.966;8.230;2022-12-07T09:01:53;19.38;;;6.10;;
37609;SDS011;23457;51.966;8.230;2022-12-07T09:04:23;12.73;;;6.18;;
37609;SDS011;23457;51.966;8.230;2022-12-07T09:09:17;16.27;;;7.03;;
37609;SDS011;23457;51.966;8.230;2022-12-07T09:11:43;16.55;;;6.72;;
37609;SDS011;23457;51.966;8.230;2022-12-07T09:14:14;15.15;;;6.85;;
37609;SDS011;23457;51.966;8.230;2022-12-07T09:16:41;16.00;;;6.30;;
37609;SDS011;23457;51.966;8.230;2022-12-07T09:19:08;22.15;;;7.43;;
37609;SDS011;23457;51.966;8.230;2022-12-07T09:21:36;18.60;;;7.45;;
37609;SDS011;23457;51.966;8.230;2022-12-07T09:24:02;12.38;;;6.55;;
37609;SDS011;23457;51.966;8.230;2022-12-07T09:26:29;18.55;;;6.50;;
37609;SDS011;23457;51.966;8.230;2022-12-07T09:28:56;17.83;;;6.15;;
37609;SDS011;23457;51.966;8.230;2022-12-07T09:31:23;14.00;;;5.68;;
37609;SDS011;23457;51.966;8.230;2022-12-07T09:33:58;12.60;;;5.82;;
37609;SDS011;23457;51.966;8.230;2022-12-07T09:36:27;15.13;;;5.30;;
37609;SDS011;23457;51.966;8.230;2022-12-07T09:38:58;14.35;;;5.30;;
37609;SDS011;23457;51.966;8.230;2022-12-07T09:44:21;14.65;;;4.97;;
37609;SDS011;23457;51.966;8.230;2022-12-07T09:46:51;15.85;;;5.43;;
37609;SDS011;23457;51.966;8.230;2022-12-07T09:49:20;16.38;;;4.63;;
37609;SDS011;23457;51.966;8.230;2022-12-07T09:51:57;12.98;;;4.85;;
37609;SDS011;23457;51.966;8.230;2022-12-07T09:55:03;9.45;;;3.97;;
37609;SDS011;23457;51.966;8.230;2022-12-07T09:57:38;12.85;;;4.07;;
37609;SDS011;23457;51.966;8.230;2022-12-07T10:00:15;9.85;;;3.67;;
37609;SDS011;23457;51.966;8.230;2022-12-07T10:02:46;11.02;;;3.90;;
37609;SDS011;23457;51.966;8.230;2022-12-07T10:05:37;13.45;;;4.38;;
37609;SDS011;23457;51.966;8.230;2022-12-07T10:08:07;11.57;;;3.28;;
37609;SDS011;23457;51.966;8.230;2022-12-07T10:10:38;14.75;;;3.67;;
37609;SDS011;23457;51.966;8.230;2022-12-07T10:13:10;14.65;;;3.97;;
37609;SDS011;23457;51.966;8.230;2022-12-07T10:15:46;10.13;;;3.90;;
37609;SDS011;23457;51.966;8.230;2022-12-07T10:21:17;19.10;;;3.80;;
37609;SDS011;23457;51.966;8.230;2022-12-07T10:26:37;14.20;;;3.72;;
37609;SDS011;23457;51.966;8.230;2022-12-07T10:29:19;10.10;;;3.10;;
37609;SDS011;23457;51.966;8.230;2022-12-07T10:31:58;9.90;;;3.42;;
37609;SDS011;23457;51.966;8.230;2022-12-07T10:34:28;15.48;;;4.25;;
37609;SDS011;23457;51.966;8.230;2022-12-07T10:39:52;14.52;;;3.13;;
37609;SDS011;23457;51.966;8.230;2022-12-07T11:11:33;12.90;;;2.88;;
37609;SDS011;23457;51.966;8.230;2022-12-07T11:14:10;10.98;;;3.05;;
37609;SDS011;23457;51.966;8.230;2022-12-07T11:20:13;12.07;;;3.35;;
37609;SDS011;23457;51.966;8.230;2022-12-07T11:37:36;9.75;;;2.95;;
37609;SDS011;23457;51.966;8.230;2022-12-07T11:40:11;16.35;;;2.83;;
37609;SDS011;23457;51.966;8.230;2022-12-07T11:42:49;9.38;;;2.45;;
37609;SDS011;23457;51.966;8.230;2022-12-07T11:45:25;11.57;;;2.10;;
37609;SDS011;23457;51.966;8.230;2022-12-07T11:47:55;8.68;;;1.95;;
37609;SDS011;23457;51.966;8.230;2022-12-07T11:58:22;10.07;;;1.88;;
37609;SDS011;23457;51.966;8.230;2022-12-07T12:01:07;11.25;;;2.55;;
37609;SDS011;23457;51.966;8.230;2022-12-07T12:18:05;6.22;;;1.88;;
37609;SDS011;23457;51.966;8.230;2022-12-07T12:25:40;9.07;;;1.42;;
37609;SDS011;23457;51.966;8.230;2022-12-07T12:28:22;7.63;;;1.52;;
37609;SDS011;23457;51.966;8.230;2022-12-07T12:33:46;7.72;;;1.75;;
37609;SDS011;23457;51.966;8.230;2022-12-07T12:41:50;15.52;;;1.85;;
37609;SDS011;23457;51.966;8.230;2022-12-07T12:51:43;8.13;;;1.70;;
37609;SDS011;23457;51.966;8.230;2022-12-07T13:02:25;9.15;;;1.67;;
37609;SDS011;23457;51.966;8.230;2022-12-07T13:04:58;10.75;;;1.85;;
37609;SDS011;23457;51.966;8.230;2022-12-07T13:21:00;12.90;;;2.08;;
37609;SDS011;23457;51.966;8.230;2022-12-07T13:23:31;9.48;;;2.20;;
37609;SDS011;23457;51.966;8.230;2022-12-07T13:28:48;11.07;;;2.08;;
37609;SDS011;23457;51.966;8.230;2022-12-07T13:31:23;12.32;;;2.28;;
37609;SDS011;23457;51.966;8.230;2022-12-07T13:33:52;14.18;;;1.95;;
37609;SDS011;23457;51.966;8.230;2022-12-07T13:36:25;10.63;;;1.77;;
37609;SDS011;23457;51.966;8.230;2022-12-07T13:38:55;9.50;;;1.80;;
37609;SDS011;23457;51.966;8.230;2022-12-07T13:41:25;9.57;;;2.35;;
37609;SDS011;23457;51.966;8.230;2022-12-07T13:44:08;13.70;;;1.63;;
37609;SDS011;23457;51.966;8.230;2022-12-07T13:49:29;8.88;;;1.90;;
37609;SDS011;23457;51.966;8.230;2022-12-07T13:54:48;7.50;;;1.73;;
37609;SDS011;23457;51.966;8.230;2022-12-07T13:57:40;6.53;;;1.60;;
37609;SDS011;23457;51.966;8.230;2022-12-07T14:00:42;11.52;;;1.73;;
37609;SDS011;23457;51.966;8.230;2022-12-07T14:03:05;15.20;;;1.95;;
37609;SDS011;23457;51.966;8.230;2022-12-07T14:06:14;7.72;;;1.60;;
37609;SDS011;23457;51.966;8.230;2022-12-07T14:08:48;9.75;;;1.50;;
37609;SDS011;23457;51.966;8.230;2022-12-07T14:11:27;7.82;;;1.40;;
37609;SDS011;23457;51.966;8.230;2022-12-07T14:13:58;16.63;;;2.75;;
37609;SDS011;23457;51.966;8.230;2022-12-07T14:16:28;10.90;;;1.92;;
37609;SDS011;23457;51.966;8.230;2022-12-07T14:19:04;11.70;;;2.17;;
37609;SDS011;23457;51.966;8.230;2022-12-07T14:21:32;9.32;;;1.38;;
37609;SDS011;23457;51.966;8.230;2022-12-07T14:24:12;8.40;;;1.35;;
37609;SDS011;23457;51.966;8.230;2022-12-07T14:26:43;11.15;;;1.92;;
37609;SDS011;23457;51.966;8.230;2022-12-07T14:31:51;14.35;;;1.98;;
37609;SDS011;23457;51.966;8.230;2022-12-07T14:34:22;8.25;;;1.60;;
37609;SDS011;23457;51.966;8.230;2022-12-07T14:36:50;8.70;;;1.50;;
37609;SDS011;23457;51.966;8.230;2022-12-07T14:39:16;11.95;;;2.10;;
37609;SDS011;23457;51.966;8.230;2022-12-07T14:41:43;10.35;;;2.10;;
37609;SDS011;23457;51.966;8.230;2022-12-07T14:44:22;13.05;;;2.45;;
37609;SDS011;23457;51.966;8.230;2022-12-07T14:46:54;11.98;;;3.35;;
37609;SDS011;23457;51.966;8.230;2022-12-07T14:49:41;9.00;;;1.83;;
37609;SDS011;23457;51.966;8.230;2022-12-07T14:52:13;11.60;;;2.28;;
37609;SDS011;23457;51.966;8.230;2022-12-07T14:55:03;13.15;;;2.35;;
37609;SDS011;23457;51.966;8.230;2022-12-07T14:57:34;10.40;;;2.00;;
37609;SDS011;23457;51.966;8.230;2022-12-07T15:00:01;9.18;;;2.67;;
37609;SDS011;23457;51.966;8.230;2022-12-07T15:02:27;6.90;;;1.38;;
37609;SDS011;23457;51.966;8.230;2022-12-07T15:04:54;11.32;;;2.80;;
37609;SDS011;23457;51.966;8.230;2022-12-07T15:07:21;14.68;;;2.55;;
37609;SDS011;23457;51.966;8.230;2022-12-07T15:09:48;10.40;;;2.17;;
37609;SDS011;23457;51.966;8.230;2022-12-07T15:12:15;10.20;;;2.13;;
37609;SDS011;23457;51.966;8.230;2022-12-07T15:14:41;8.75;;;2.05;;
37609;SDS011;23457;51.966;8.230;2022-12-07T15:17:09;8.75;;;3.28;;
37609;SDS011;23457;51.966;8.230;2022-12-07T15:19:51;9.60;;;2.40;;
37609;SDS011;23457;51.966;8.230;2022-12-07T15:22:18;18.60;;;2.70;;
37609;SDS011;23457;51.966;8.230;2022-12-07T15:24:44;16.40;;;2.95;;
37609;SDS011;23457;51.966;8.230;2022-12-07T15:27:11;16.95;;;3.58;;
37609;SDS011;23457;51.966;8.230;2022-12-07T15:29:38;10.68;;;2.97;;
37609;SDS011;23457;51.966;8.230;2022-12-07T15:32:04;11.75;;;2.92;;
37609;SDS011;23457;51.966;8.230;2022-12-07T15:34:31;13.10;;;3.90;;
37609;SDS011;23457;51.966;8.230;2022-12-07T15:37:05;7.50;;;2.78;;
37609;SDS011;23457;51.966;8.230;2022-12-07T15:40:12;12.65;;;2.80;;
37609;SDS011;23457;51.966;8.230;2022-12-07T15:42:40;16.13;;;3.75;;
37609;SDS011;23457;51.966;8.230;2022-12-07T15:45:07;13.10;;;3.35;;
37609;SDS011;23457;51.966;8.230;2022-12-07T15:47:36;7.95;;;3.75;;
37609;SDS011;23457;51.966;8.230;2022-12-07T15:50:24;17.88;;;3.78;;
37609;SDS011;23457;51.966;8.230;2022-12-07T15:52:51;13.27;;;3.53;;
37609;SDS011;23457;51.966;8.230;2022-12-07T15:55:17;11.20;;;3.15;;
37609;SDS011;23457;51.966;8.230;2022-12-07T15:57:44;10.98;;;4.20;;
37609;SDS011;23457;51.966;8.230;2022-12-07T16:00:11;12.18;;;3.75;;
37609;SDS011;23457;51.966;8.230;2022-12-07T16:02:38;9.68;;;2.70;;
37609;SDS011;23457;51.966;8.230;2022-12-07T16:05:06;12.25;;;3.42;;
37609;SDS011;23457;51.966;8.230;2022-12-07T16:07:32;10.18;;;3.05;;
37609;SDS011;23457;51.966;8.230;2022-12-07T16:09:59;11.60;;;3.42;;
37609;SDS011;23457;51.966;8.230;2022-12-07T16:12:26;15.30;;;3.13;;
37609;SDS011;23457;51.966;8.230;2022-12-07T16:14:52;11.57;;;2.75;;
37609;SDS011;23457;51.966;8.230;2022-12-07T16:17:19;11.35;;;3.83;;
37609;SDS011;23457;51.966;8.230;2022-12-07T16:19:45;13.07;;;3.05;;
37609;SDS011;23457;51.966;8.230;2022-12-07T16:22:12;13.40;;;4.40;;
37609;SDS011;23457;51.966;8.230;2022-12-07T16:24:39;10.02;;;3.47;;
37609;SDS011;23457;51.966;8.230;2022-12-07T16:27:05;10.30;;;2.92;;
37609;SDS011;23457;51.966;8.230;2022-12-07T16:29:32;12.00;;;2.90;;
37609;SDS011;23457;51.966;8.230;2022-12-07T16:31:58;15.27;;;3.25;;
37609;SDS011;23457;51.966;8.230;2022-12-07T16:34:25;15.52;;;3.15;;
37609;SDS011;23457;51.966;8.230;2022-12-07T16:36:52;11.57;;;3.45;;
37609;SDS011;23457;51.966;8.230;2022-12-07T16:39:34;14.98;;;3.17;;
37609;SDS011;23457;51.966;8.230;2022-12-07T16:42:01;9.77;;;3.45;;
37609;SDS011;23457;51.966;8.230;2022-12-07T16:44:35;14.40;;;3.10;;
37609;SDS011;23457;51.966;8.230;2022-12-07T16:47:01;7.32;;;2.50;;
37609;SDS011;23457;51.966;8.230;2022-12-07T16:49:28;13.70;;;2.70;;
37609;SDS011;23457;51.966;8.230;2022-12-07T16:51:55;15.38;;;4.45;;
37609;SDS011;23457;51.966;8.230;2022-12-07T16:54:48;8.43;;;3.00;;
37609;SDS011;23457;51.966;8.230;2022-12-07T16:57:16;15.73;;;2.70;;
37609;SDS011;23457;51.966;8.230;2022-12-07T16:59:48;13.70;;;2.40;;
37609;SDS011;23457;51.966;8.230;2022-12-07T17:02:27;12.38;;;2.47;;
37609;SDS011;23457;51.966;8.230;2022-12-07T17:05:13;8.45;;;2.40;;
37609;SDS011;23457;51.966;8.230;2022-12-07T17:07:41;10.80;;;2.63;;
37609;SDS011;23457;51.966;8.230;2022-12-07T17:10:08;11.63;;;2.50;;
37609;SDS011;23457;51.966;8.230;2022-12-07T17:12:38;7.43;;;2.22;;
37609;SDS011;23457;51.966;8.230;2022-12-07T17:15:05;10.90;;;2.30;;
37609;SDS011;23457;51.966;8.230;2022-12-07T17:17:45;13.30;;;2.30;;
37609;SDS011;23457;51.966;8.230;2022-12-07T17:20:12;8.48;;;2.80;;
37609;SDS011;23457;51.966;8.230;2022-12-07T17:22:40;11.38;;;2.53;;
37609;SDS011;23457;51.966;8.230;2022-12-07T17:25:07;11.55;;;2.70;;
37609;SDS011;23457;51.966;8.230;2022-12-07T17:27:33;9.75;;;2.78;;
37609;SDS011;23457;51.966;8.230;2022-12-07T17:30:00;10.15;;;2.95;;
37609;SDS011;23457;51.966;8.230;2022-12-07T17:32:27;11.82;;;3.13;;
37609;SDS011;23457;51.966;8.230;2022-12-07T17:34:54;11.43;;;3.08;;
37609;SDS011;23457;51.966;8.230;2022-12-07T17:37:21;9.57;;;3.33;;
37609;SDS011;23457;51.966;8.230;2022-12-07T17:39:49;11.35;;;2.90;;
37609;SDS011;23457;51.966;8.230;2022-12-07T17:42:16;10.20;;;3.47;;
37609;SDS011;23457;51.966;8.230;2022-12-07T17:45:02;10.88;;;3.80;;
37609;SDS011;23457;51.966;8.230;2022-12-07T17:47:33;14.10;;;4.00;;
37609;SDS011;23457;51.966;8.230;2022-12-07T17:49:59;13.05;;;3.80;;
37609;SDS011;23457;51.966;8.230;2022-12-07T17:52:32;14.75;;;3.85;;
37609;SDS011;23457;51.966;8.230;2022-12-07T17:55:18;9.43;;;3.78;;
37609;SDS011;23457;51.966;8.230;2022-12-07T17:57:44;13.68;;;5.22;;
37609;SDS011;23457;51.966;8.230;2022-12-07T18:00:11;11.23;;;3.90;;
37609;SDS011;23457;51.966;8.230;2022-12-07T18:02:38;12.20;;;4.18;;
37609;SDS011;23457;51.966;8.230;2022-12-07T18:05:06;14.55;;;3.97;;
37609;SDS011;23457;51.966;8.230;2022-12-07T18:07:33;15.02;;;4.78;;